Lingen, Germany

06:49 PM CEST die 27o August, anno 2016 (GMT +0200)
Hummelweg | | Change Station

Elev 91 ft 52.51 °N, 7.29 °E | Updated 5 minutes ago

Mostly Cloudy
Plerumque Nubila
80.1 °F
Feels Like 82 °F
N
0.6
Ventus Variabilis Ventus from Inter Aquilonem et Eurum
Gusts 2.5 mph

Hodie
High -- | Low -- °F
--% Chance of Precip.
Yesterday
High -- | Low -- °F
Precip. -- in
Pressio 30.01 in
Visibilitas 6.2 milia passuum
Clouds Few 3500 ft
Few 13000 ft
Plerumque Nubila 30000 ft
Index Caloris 82 °F
Frigus in quo Ros apparet 64 °F
Umor 57%
Rainfall 0.00 in
Snow Depth Not available.
6:33 AM 8:29 PM
Waning Crescent, 23% visible
METAR EDDG 271620Z 07005KT 360V170 9999 FEW035CB FEW130 BKN300 28/18 Q1016 NOSIG
Pressio 30.01 in
Visibilitas 6.2 milia passuum
Clouds Few 3500 ft
Few 13000 ft
Plerumque Nubila 30000 ft
Index Caloris 82 °F
Frigus in quo Ros apparet 64 °F
Umor 57%
Rainfall 0.00 in
Snow Depth Not available.
6:33 AM 8:29 PM
Waning Crescent, 23% visible
METAR EDDG 271620Z 07005KT 360V170 9999 FEW035CB FEW130 BKN300 28/18 Q1016 NOSIG

10-Day Weather Forecast

×

Almanac

Astronomy

Aug. 27, 2016 Rise Set
Actual Time
Civil Twilight
Nautical Twilight
Astronomical Twilight
Moon
Length Of Visible Light
Length of Day
Tomorrow will be .
, % of the Moon is Illuminated

Today's Extremes

Country Highs Country Lows

Community

WunderPhotos

Upload Photos

1,935,377 photos uploaded!

WunderBlog® & News

Nearby

Air Quality

  Air Quality AQ Index Pollutant
Not available.

Snow Depth

Station Depth Elevation

Earthquake Activity

City Distance Mag. Time & Date
Minimum magnitude displayed is 2.5.

Coastal Water Temperatures

Locus Calor

Stations

Nearby Weather Stations

Station Location Temp Frigus Venti Frigus in quo Ros apparet Umor Ventus Precip. Elev Renovata Type